createdAt,value
2022-09-13T00:01:13.508Z,10.63
2022-09-13T00:03:42.139Z,12.37
2022-09-13T00:06:14.797Z,10.83
2022-09-13T00:08:43.867Z,13.30
2022-09-13T00:11:18.028Z,11.30
2022-09-13T00:13:46.707Z,14.33
2022-09-13T00:16:16.655Z,12.17
2022-09-13T00:18:45.626Z,12.23
2022-09-13T00:21:17.507Z,12.90
2022-09-13T00:23:47.651Z,11.73
2022-09-13T00:26:19.233Z,11.20
2022-09-13T00:28:51.676Z,10.50
2022-09-13T00:31:21.184Z,10.73
2022-09-13T00:33:49.778Z,14.43
2022-09-13T00:36:19.972Z,12.07
2022-09-13T00:38:48.621Z,11.10
2022-09-13T00:41:19.841Z,11.30
2022-09-13T00:43:50.917Z,14.57
2022-09-13T00:46:25.596Z,12.30
2022-09-13T00:48:59.482Z,13.03
2022-09-13T00:51:30.909Z,12.93
2022-09-13T00:54:00.860Z,13.60
2022-09-13T00:56:33.451Z,13.17
2022-09-13T00:59:05.728Z,13.00
2022-09-13T01:01:41.587Z,11.50
2022-09-13T01:04:12.749Z,13.70
2022-09-13T01:06:43.297Z,13.53
2022-09-13T01:09:13.981Z,14.10
2022-09-13T01:11:49.245Z,13.67
2022-09-13T01:14:20.001Z,11.83
2022-09-13T01:16:48.838Z,10.90
2022-09-13T01:19:18.087Z,13.40
2022-09-13T01:22:13.816Z,11.63
2022-09-13T01:25:14.938Z,13.00
2022-09-13T01:28:08.263Z,12.43
2022-09-13T01:30:42.396Z,10.50
2022-09-13T01:33:27.440Z,12.40
2022-09-13T01:36:16.688Z,12.00
2022-09-13T01:38:57.882Z,13.33
2022-09-13T01:41:54.503Z,12.90
2022-09-13T01:44:35.799Z,11.50
2022-09-13T01:47:12.431Z,11.60
2022-09-13T01:49:47.630Z,12.40
2022-09-13T01:52:22.942Z,13.83
2022-09-13T01:54:58.791Z,12.17
2022-09-13T01:57:34.248Z,14.30
2022-09-13T02:00:07.865Z,14.60
2022-09-13T02:02:46.137Z,13.60
2022-09-13T02:05:20.421Z,13.43
2022-09-13T02:07:55.160Z,13.30
2022-09-13T02:10:27.850Z,12.50
2022-09-13T02:12:59.789Z,12.93
2022-09-13T02:15:34.446Z,13.47
2022-09-13T02:18:08.661Z,14.60
2022-09-13T02:20:40.246Z,13.60
2022-09-13T02:23:13.551Z,12.37
2022-09-13T02:25:43.635Z,14.17
2022-09-13T02:28:16.249Z,14.93
2022-09-13T02:30:51.745Z,13.87
2022-09-13T02:33:25.286Z,12.10
2022-09-13T02:35:57.751Z,13.77
2022-09-13T02:38:32.006Z,15.50
2022-09-13T02:41:06.892Z,12.47
2022-09-13T02:43:41.968Z,12.17
2022-09-13T02:46:21.999Z,13.80
2022-09-13T02:49:00.108Z,12.07
2022-09-13T02:51:35.223Z,15.67
2022-09-13T02:54:16.257Z,12.97
2022-09-13T02:56:53.093Z,13.43
2022-09-13T02:59:24.179Z,13.87
2022-09-13T03:01:59.634Z,13.07
2022-09-13T03:04:30.602Z,14.33
2022-09-13T03:06:59.200Z,13.60
2022-09-13T03:09:28.680Z,11.53
2022-09-13T03:12:15.637Z,14.97
2022-09-13T03:14:51.246Z,15.70
2022-09-13T03:17:36.692Z,13.67
2022-09-13T03:20:14.446Z,13.80
2022-09-13T03:23:09.633Z,12.47
2022-09-13T03:25:56.447Z,13.33
2022-09-13T03:28:36.526Z,14.57
2022-09-13T03:31:11.156Z,13.27
2022-09-13T03:33:47.444Z,12.97
2022-09-13T03:36:23.075Z,12.37
2022-09-13T03:39:01.869Z,18.83
2022-09-13T03:41:35.990Z,12.77
2022-09-13T03:44:07.493Z,14.57
2022-09-13T03:46:40.151Z,13.47
2022-09-13T03:49:12.014Z,13.80
2022-09-13T03:51:42.976Z,12.23
2022-09-13T03:54:20.281Z,12.83
2022-09-13T03:57:10.603Z,13.80
2022-09-13T03:59:41.268Z,12.47
2022-09-13T04:02:12.250Z,13.10
2022-09-13T04:04:41.595Z,12.37
2022-09-13T04:07:13.486Z,14.17
2022-09-13T04:09:42.034Z,13.00
2022-09-13T04:12:11.325Z,11.67
2022-09-13T04:14:39.795Z,15.33
2022-09-13T04:17:08.808Z,13.57
2022-09-13T04:19:37.541Z,14.73
2022-09-13T04:22:06.413Z,12.40
2022-09-13T04:24:37.562Z,13.23
2022-09-13T04:27:06.559Z,15.40
2022-09-13T04:29:35.120Z,14.60
2022-09-13T04:32:04.451Z,12.57
2022-09-13T04:34:32.857Z,14.40
2022-09-13T04:37:01.328Z,11.60
2022-09-13T04:39:30.097Z,11.80
2022-09-13T04:42:00.094Z,15.20
2022-09-13T04:44:29.811Z,12.87
2022-09-13T04:46:58.260Z,13.53
2022-09-13T04:49:26.860Z,12.40
2022-09-13T04:51:55.587Z,11.83
2022-09-13T04:54:24.496Z,13.20
2022-09-13T04:56:53.047Z,14.87
2022-09-13T04:59:22.998Z,13.40
2022-09-13T05:01:51.577Z,13.37
2022-09-13T05:04:20.372Z,14.13
2022-09-13T05:06:49.271Z,13.17
2022-09-13T05:09:18.038Z,10.90
2022-09-13T05:11:46.539Z,13.37
2022-09-13T05:14:15.422Z,12.33
2022-09-13T05:16:45.419Z,10.47
2022-09-13T05:19:14.457Z,12.10
2022-09-13T05:21:43.062Z,11.07
2022-09-13T05:24:12.040Z,11.17
2022-09-13T05:26:40.542Z,10.60
2022-09-13T05:29:09.112Z,14.20
2022-09-13T05:31:40.643Z,15.90
2022-09-13T05:34:12.295Z,12.13
2022-09-13T05:36:41.285Z,13.40
2022-09-13T05:42:04.132Z,12.10
2022-09-13T05:44:32.618Z,9.50
2022-09-13T05:47:01.129Z,10.93
2022-09-13T05:49:31.116Z,11.63
2022-09-13T05:51:59.586Z,9.17
2022-09-13T05:54:28.090Z,9.20
2022-09-13T05:56:57.689Z,12.60
2022-09-13T05:59:26.229Z,11.00
2022-09-13T06:01:54.836Z,9.20
2022-09-13T06:04:23.499Z,9.30
2022-09-13T06:06:53.667Z,9.20
2022-09-13T06:09:22.276Z,9.27
2022-09-13T06:11:50.719Z,8.30
2022-09-13T06:14:19.200Z,13.50
2022-09-13T06:16:47.655Z,10.40
2022-09-13T06:19:16.101Z,8.63
2022-09-13T06:21:44.614Z,8.60
2022-09-13T06:24:14.895Z,9.03
2022-09-13T06:26:43.383Z,8.77
2022-09-13T06:29:13.184Z,9.97
2022-09-13T06:31:44.915Z,10.87
2022-09-13T06:34:15.679Z,8.53
2022-09-13T06:36:44.430Z,8.90
2022-09-13T06:39:14.376Z,9.88
2022-09-13T06:41:42.856Z,8.32
2022-09-13T06:44:11.376Z,7.60
2022-09-13T06:46:40.167Z,7.55
2022-09-13T06:49:10.027Z,7.45
2022-09-13T06:51:38.605Z,7.18
2022-09-13T06:54:07.207Z,6.72
2022-09-13T06:56:39.567Z,10.25
2022-09-13T06:59:09.806Z,7.85
2022-09-13T07:01:40.294Z,6.82
2022-09-13T07:04:10.387Z,10.70
2022-09-13T07:06:40.781Z,9.32
2022-09-13T07:09:12.085Z,6.97
2022-09-13T07:11:43.364Z,8.23
2022-09-13T07:14:16.052Z,7.32
2022-09-13T07:16:46.249Z,10.40
2022-09-13T07:19:17.055Z,9.30
2022-09-13T07:21:45.744Z,7.40
2022-09-13T07:24:14.493Z,7.63
2022-09-13T07:26:45.119Z,8.07
2022-09-13T07:29:16.482Z,9.02
2022-09-13T07:31:46.386Z,8.93
2022-09-13T07:34:16.835Z,8.35
2022-09-13T07:36:47.039Z,7.00
2022-09-13T07:39:20.270Z,6.70
2022-09-13T07:41:53.979Z,11.30
2022-09-13T07:44:22.905Z,6.57
2022-09-13T07:46:51.526Z,8.07
2022-09-13T07:49:20.769Z,7.32
2022-09-13T07:51:51.556Z,7.72
2022-09-13T07:54:21.354Z,8.52
2022-09-13T07:56:51.937Z,8.38
2022-09-13T07:59:20.833Z,9.43
2022-09-13T08:01:51.207Z,7.78
2022-09-13T08:04:21.763Z,9.27
2022-09-13T08:06:50.524Z,9.15
2022-09-13T08:09:20.040Z,8.18
2022-09-13T08:11:51.815Z,8.10
2022-09-13T08:14:23.758Z,8.35
2022-09-13T08:16:52.701Z,7.97
2022-09-13T08:19:21.254Z,7.68
2022-09-13T08:21:49.557Z,9.60
2022-09-13T08:24:19.929Z,6.68
2022-09-13T08:26:49.117Z,8.40
2022-09-13T08:29:18.169Z,7.78
2022-09-13T08:31:48.069Z,8.02
2022-09-13T08:34:18.260Z,8.30
2022-09-13T08:36:46.639Z,7.45
2022-09-13T08:39:15.204Z,11.93
2022-09-13T08:42:12.963Z,9.27
2022-09-13T08:44:47.064Z,8.50
2022-09-13T08:47:40.387Z,7.63
2022-09-13T08:50:17.504Z,6.88
2022-09-13T08:53:21.346Z,11.57
2022-09-13T08:55:57.843Z,10.40
2022-09-13T08:58:44.450Z,11.10
2022-09-13T09:01:23.180Z,8.10
2022-09-13T09:03:58.725Z,8.50
2022-09-13T09:06:27.370Z,7.90
2022-09-13T09:09:00.958Z,7.57
2022-09-13T09:11:35.516Z,6.10
2022-09-13T09:14:10.180Z,8.43
2022-09-13T09:16:42.077Z,8.93
2022-09-13T09:19:21.421Z,9.77
2022-09-13T09:21:52.010Z,7.50
2022-09-13T09:24:23.718Z,6.63
2022-09-13T09:26:53.837Z,7.63
2022-09-13T09:29:25.635Z,6.38
2022-09-13T09:32:09.921Z,9.35
2022-09-13T09:34:48.971Z,7.35
2022-09-13T09:37:22.179Z,5.40
2022-09-13T09:39:51.714Z,8.05
2022-09-13T09:42:24.931Z,9.40
2022-09-13T09:44:56.581Z,6.20
2022-09-13T09:47:29.633Z,5.13
2022-09-13T09:50:11.023Z,6.75
2022-09-13T09:52:44.603Z,7.97
2022-09-13T09:55:21.159Z,9.55
2022-09-13T09:57:53.285Z,5.45
2022-09-13T10:00:23.731Z,7.30
2022-09-13T10:02:56.222Z,6.57
2022-09-13T10:05:27.799Z,6.95
2022-09-13T10:08:03.127Z,7.03
2022-09-13T10:10:38.483Z,5.78
2022-09-13T10:13:14.163Z,5.13
2022-09-13T10:15:54.583Z,6.75
2022-09-13T10:18:43.460Z,7.22
2022-09-13T10:21:24.225Z,6.80
2022-09-13T10:24:13.311Z,5.60
2022-09-13T10:26:43.287Z,7.10
2022-09-13T10:29:17.736Z,8.02
2022-09-13T10:31:50.082Z,5.72
2022-09-13T10:34:22.366Z,5.85
2022-09-13T10:36:55.902Z,5.97
2022-09-13T10:39:26.345Z,7.82
2022-09-13T10:41:58.536Z,7.82
2022-09-13T10:44:33.782Z,6.72
2022-09-13T10:47:05.788Z,5.85
2022-09-13T10:49:50.613Z,7.88
2022-09-13T10:52:31.315Z,7.75
2022-09-13T10:55:32.372Z,4.80
2022-09-13T10:58:32.279Z,5.53
2022-09-13T11:01:25.293Z,6.18
2022-09-13T11:04:21.066Z,6.22
2022-09-13T11:07:02.156Z,5.50
2022-09-13T11:09:36.761Z,4.68
2022-09-13T11:12:18.463Z,5.55
2022-09-13T11:14:57.802Z,4.63
2022-09-13T11:17:43.821Z,6.63
2022-09-13T11:20:22.493Z,7.57
2022-09-13T11:23:12.610Z,4.50
2022-09-13T11:25:53.260Z,8.45
2022-09-13T11:28:29.943Z,5.70
2022-09-13T11:31:14.011Z,6.95
2022-09-13T11:33:52.459Z,7.05
2022-09-13T11:36:43.045Z,6.95
2022-09-13T11:39:24.920Z,4.18
2022-09-13T11:42:03.366Z,4.28
2022-09-13T11:44:57.006Z,6.60
2022-09-13T11:47:42.167Z,7.28
2022-09-13T11:50:43.498Z,6.40
2022-09-13T11:53:37.040Z,5.22
2022-09-13T11:56:09.898Z,6.40
2022-09-13T11:58:45.802Z,5.40
2022-09-13T12:01:21.021Z,4.45
2022-09-13T12:03:57.568Z,6.90
2022-09-13T12:06:30.644Z,10.30
2022-09-13T12:09:03.704Z,6.38
2022-09-13T12:11:36.488Z,7.57
2022-09-13T12:14:07.947Z,8.00
2022-09-13T12:16:39.565Z,6.70
2022-09-13T12:19:16.983Z,5.90
2022-09-13T12:21:46.086Z,7.93
2022-09-13T12:24:19.356Z,6.13
2022-09-13T12:26:53.443Z,5.85
2022-09-13T12:29:29.168Z,5.00
2022-09-13T12:32:01.926Z,6.78
2022-09-13T12:34:40.105Z,5.75
2022-09-13T12:37:29.518Z,8.98
2022-09-13T12:40:23.619Z,5.10
2022-09-13T12:43:25.414Z,5.75
2022-09-13T12:46:29.491Z,6.45
2022-09-13T12:49:24.419Z,4.57
2022-09-13T12:52:16.046Z,7.60
2022-09-13T12:55:29.439Z,5.57
2022-09-13T12:58:16.582Z,4.53
2022-09-13T13:00:51.118Z,5.78
2022-09-13T13:03:21.068Z,4.93
2022-09-13T13:06:09.085Z,5.07
2022-09-13T13:08:40.015Z,6.43
2022-09-13T13:11:11.400Z,5.00
2022-09-13T13:13:42.211Z,7.57
2022-09-13T13:16:27.474Z,5.72
2022-09-13T13:18:57.525Z,5.45
2022-09-13T13:21:34.315Z,6.38
2022-09-13T13:24:45.222Z,6.07
2022-09-13T13:27:42.742Z,5.25
2022-09-13T13:30:41.546Z,4.85
2022-09-13T13:33:29.432Z,6.13
2022-09-13T13:35:57.890Z,5.20
2022-09-13T13:38:58.038Z,6.03
2022-09-13T13:41:48.292Z,6.97
2022-09-13T13:44:54.185Z,3.75
2022-09-13T13:47:59.066Z,4.75
2022-09-13T13:50:27.492Z,5.22
2022-09-13T13:53:05.671Z,3.70
2022-09-13T13:55:44.631Z,4.70
2022-09-13T13:58:43.659Z,4.22
2022-09-13T14:01:18.912Z,4.70
2022-09-13T14:04:24.014Z,4.30
2022-09-13T14:07:06.126Z,3.97
2022-09-13T14:09:43.927Z,4.50
2022-09-13T14:12:22.901Z,5.38
2022-09-13T14:15:17.436Z,4.00
2022-09-13T14:18:35.124Z,5.35
2022-09-13T14:21:06.184Z,5.75
2022-09-13T14:23:35.374Z,6.05
2022-09-13T14:26:05.594Z,6.25
2022-09-13T14:28:34.613Z,4.72
2022-09-13T14:31:04.674Z,4.03
2022-09-13T14:33:36.956Z,3.65
2022-09-13T14:36:07.765Z,4.93
2022-09-13T14:38:37.564Z,3.88
2022-09-13T14:41:15.350Z,6.90
2022-09-13T14:43:44.382Z,5.68
2022-09-13T14:46:20.935Z,4.15
2022-09-13T14:48:52.200Z,5.18
2022-09-13T14:51:26.104Z,5.78
2022-09-13T14:53:59.432Z,6.13
2022-09-13T14:56:34.820Z,4.28
2022-09-13T14:59:08.022Z,8.07
2022-09-13T15:01:37.952Z,6.40
2022-09-13T15:04:07.841Z,4.70
2022-09-13T15:06:39.314Z,4.68
2022-09-13T15:09:27.764Z,6.10
2022-09-13T15:11:59.604Z,5.35
2022-09-13T15:14:31.227Z,4.53
2022-09-13T15:17:08.213Z,5.10
2022-09-13T15:19:42.237Z,5.25
2022-09-13T15:22:17.805Z,6.35
2022-09-13T15:24:48.821Z,4.28
2022-09-13T15:27:23.744Z,3.90
2022-09-13T15:29:54.279Z,3.70
2022-09-13T15:32:33.378Z,4.97
2022-09-13T15:35:03.369Z,8.55
2022-09-13T15:37:35.370Z,4.32
2022-09-13T15:40:14.219Z,5.45
2022-09-13T15:42:46.297Z,4.70
2022-09-13T15:45:14.927Z,3.55
2022-09-13T15:47:47.474Z,7.28
2022-09-13T15:50:26.824Z,4.57
2022-09-13T15:52:56.066Z,4.75
2022-09-13T15:55:25.110Z,5.20
2022-09-13T15:57:53.682Z,4.53
2022-09-13T16:00:24.326Z,7.72
2022-09-13T16:02:54.720Z,4.50
2022-09-13T16:05:23.367Z,5.72
2022-09-13T16:07:51.880Z,5.85
2022-09-13T16:10:22.862Z,5.13
2022-09-13T16:12:51.611Z,4.55
2022-09-13T16:15:20.097Z,6.20
2022-09-13T16:17:48.910Z,5.55
2022-09-13T16:20:18.872Z,4.57
2022-09-13T16:22:47.381Z,9.15
2022-09-13T16:25:16.614Z,7.85
2022-09-13T16:27:45.871Z,5.22
2022-09-13T16:30:19.947Z,6.30
2022-09-13T16:32:48.383Z,3.90
2022-09-13T16:35:18.972Z,7.15
2022-09-13T16:37:51.494Z,6.28
2022-09-13T16:40:20.610Z,4.35
2022-09-13T16:42:49.249Z,4.45
2022-09-13T16:45:17.754Z,5.90
2022-09-13T16:47:46.170Z,5.05
2022-09-13T16:50:14.803Z,6.30
2022-09-13T16:52:44.827Z,6.45
2022-09-13T16:55:13.491Z,6.07
2022-09-13T16:57:42.024Z,5.90
2022-09-13T17:00:11.995Z,8.05
2022-09-13T17:02:40.570Z,8.13
2022-09-13T17:05:11.114Z,8.25
2022-09-13T17:07:39.689Z,6.07
2022-09-13T17:10:12.693Z,6.47
2022-09-13T17:12:41.806Z,6.40
2022-09-13T17:15:11.354Z,6.32
2022-09-13T17:17:39.885Z,8.70
2022-09-13T17:20:12.238Z,8.02
2022-09-13T17:22:41.568Z,8.32
2022-09-13T17:25:12.100Z,6.85
2022-09-13T17:27:40.551Z,6.63
2022-09-13T17:30:12.539Z,9.77
2022-09-13T17:32:41.196Z,6.68
2022-09-13T17:35:11.236Z,7.88
2022-09-13T17:37:40.025Z,7.38
2022-09-13T17:40:09.281Z,7.85
2022-09-13T17:42:39.347Z,5.50
2022-09-13T17:45:08.139Z,6.07
2022-09-13T17:47:36.634Z,7.35
2022-09-13T17:50:05.401Z,11.77
2022-09-13T17:52:35.288Z,7.43
2022-09-13T17:55:03.766Z,7.20
2022-09-13T17:57:32.437Z,8.65
2022-09-13T18:00:02.601Z,9.02
2022-09-13T18:02:32.894Z,9.25
2022-09-13T18:05:05.284Z,10.40
2022-09-13T18:07:34.852Z,7.32
2022-09-13T18:10:03.342Z,11.00
2022-09-13T18:12:31.826Z,12.23
2022-09-13T18:15:02.588Z,20.88
2022-09-13T18:17:31.047Z,12.65
2022-09-13T18:19:59.658Z,11.50
2022-09-13T18:22:28.073Z,7.35
2022-09-13T18:24:56.610Z,8.68
2022-09-13T18:27:25.012Z,7.55
2022-09-13T18:29:53.369Z,7.05
2022-09-13T18:32:23.259Z,8.77
2022-09-13T18:34:51.723Z,10.27
2022-09-13T18:37:20.195Z,10.02
2022-09-13T18:39:48.630Z,11.88
2022-09-13T18:42:17.104Z,7.70
2022-09-13T18:44:45.634Z,9.05
2022-09-13T18:47:14.229Z,8.10
2022-09-13T18:49:44.171Z,9.48
2022-09-13T18:52:12.986Z,7.05
2022-09-13T18:54:41.462Z,7.03
2022-09-13T18:57:11.535Z,7.70
2022-09-13T18:59:40.448Z,8.40
2022-09-13T19:02:10.283Z,9.30
2022-09-13T19:04:39.232Z,9.02
2022-09-13T19:07:09.768Z,9.60
2022-09-13T19:09:38.895Z,8.60
2022-09-13T19:12:08.908Z,9.90
2022-09-13T19:14:38.150Z,11.10
2022-09-13T19:17:08.046Z,12.50
2022-09-13T19:19:37.055Z,10.02
2022-09-13T19:22:06.193Z,8.77
2022-09-13T19:24:38.244Z,10.48
2022-09-13T19:27:07.493Z,8.48
2022-09-13T19:29:36.741Z,9.60
2022-09-13T19:32:06.033Z,10.50
2022-09-13T19:34:35.337Z,11.43
2022-09-13T19:37:04.666Z,9.07
2022-09-13T19:39:34.412Z,10.25
2022-09-13T19:42:05.612Z,8.45
2022-09-13T19:44:35.056Z,9.38
2022-09-13T19:47:53.094Z,10.55
2022-09-13T19:49:54.858Z,9.25
2022-09-13T19:52:23.817Z,11.90
2022-09-13T19:54:56.463Z,9.18
2022-09-13T19:57:27.255Z,9.70
2022-09-13T19:59:55.809Z,8.30
2022-09-13T20:02:24.274Z,9.10
2022-09-13T20:04:53.217Z,8.30
2022-09-13T20:07:22.279Z,8.85
2022-09-13T20:09:51.077Z,10.77
2022-09-13T20:12:26.601Z,8.85
2022-09-13T20:14:56.824Z,11.05
2022-09-13T20:17:25.644Z,9.55
2022-09-13T20:19:54.246Z,9.38
2022-09-13T20:22:22.834Z,7.57
2022-09-13T20:24:51.397Z,7.78
2022-09-13T20:27:20.081Z,10.43
2022-09-13T20:29:48.786Z,7.82
2022-09-13T20:32:18.859Z,11.30
2022-09-13T20:34:50.056Z,13.55
2022-09-13T20:37:18.929Z,10.70
2022-09-13T20:39:48.944Z,9.32
2022-09-13T20:42:17.995Z,9.20
2022-09-13T20:44:47.233Z,8.40
2022-09-13T20:47:15.872Z,10.40
2022-09-13T20:49:45.956Z,10.35
2022-09-13T20:52:14.433Z,8.65
2022-09-13T20:54:43.311Z,8.52
2022-09-13T20:57:11.988Z,9.25
2022-09-13T20:59:40.372Z,9.27
2022-09-13T21:02:08.927Z,8.45
2022-09-13T21:04:37.362Z,10.20
2022-09-13T21:07:25.129Z,10.25
2022-09-13T21:09:53.549Z,8.98
2022-09-13T21:12:22.117Z,10.27
2022-09-13T21:14:50.963Z,8.63
2022-09-13T21:17:20.241Z,10.02
2022-09-13T21:19:48.631Z,9.50
2022-09-13T21:22:18.702Z,10.80
2022-09-13T21:24:47.081Z,10.93
2022-09-13T21:27:15.624Z,11.10
2022-09-13T21:29:44.044Z,8.77
2022-09-13T21:32:12.736Z,10.25
2022-09-13T21:34:41.201Z,13.30
2022-09-13T21:37:09.739Z,12.75
2022-09-13T21:39:39.709Z,10.43
2022-09-13T21:42:08.913Z,9.98
2022-09-13T21:44:38.739Z,10.32
2022-09-13T21:47:07.533Z,10.57
2022-09-13T21:49:36.129Z,12.77
2022-09-13T21:52:04.828Z,10.15
2022-09-13T21:54:33.301Z,10.18
2022-09-13T21:57:03.342Z,10.80
2022-09-13T21:59:31.711Z,13.95
2022-09-13T22:02:01.036Z,14.13
2022-09-13T22:04:29.570Z,9.70
2022-09-13T22:06:58.084Z,11.45
2022-09-13T22:09:28.163Z,10.90
2022-09-13T22:11:57.765Z,10.63
2022-09-13T22:14:27.824Z,10.80
2022-09-13T22:16:56.963Z,12.23
2022-09-13T22:19:27.129Z,12.57
2022-09-13T22:21:59.177Z,9.88
2022-09-13T22:24:30.022Z,9.35
2022-09-13T22:26:59.376Z,10.40
2022-09-13T22:29:30.270Z,11.57
2022-09-13T22:31:58.644Z,9.45
2022-09-13T22:34:30.936Z,9.68
2022-09-13T22:37:00.233Z,10.52
2022-09-13T22:39:28.721Z,10.65
2022-09-13T22:41:57.281Z,9.43
2022-09-13T22:44:25.868Z,9.25
2022-09-13T22:46:55.748Z,9.02
2022-09-13T22:49:24.355Z,11.13
2022-09-13T22:51:52.949Z,12.07
2022-09-13T22:54:21.395Z,11.70
2022-09-13T22:56:49.825Z,9.88
2022-09-13T22:59:20.380Z,10.73
2022-09-13T23:01:49.273Z,9.25
2022-09-13T23:04:19.680Z,10.60
2022-09-13T23:06:48.698Z,11.43
2022-09-13T23:09:19.138Z,8.55
2022-09-13T23:11:48.041Z,9.57
2022-09-13T23:14:20.211Z,11.60
2022-09-13T23:16:51.503Z,10.07
2022-09-13T23:19:23.545Z,9.05
2022-09-13T23:21:54.231Z,9.85
2022-09-13T23:24:24.299Z,9.02
2022-09-13T23:26:56.560Z,10.27
2022-09-13T23:29:25.490Z,12.00
2022-09-13T23:31:54.029Z,11.57
2022-09-13T23:34:24.111Z,11.57
2022-09-13T23:36:52.727Z,12.50
2022-09-13T23:39:21.875Z,10.27
2022-09-13T23:41:51.718Z,9.90
2022-09-13T23:44:20.878Z,9.55
2022-09-13T23:46:52.019Z,10.63
2022-09-13T23:49:20.848Z,11.75
2022-09-13T23:51:51.421Z,8.90
2022-09-13T23:54:20.183Z,9.32
2022-09-13T23:56:48.945Z,10.30
2022-09-13T23:59:17.754Z,9.18
